createdAt,value
2019-04-26T00:02:52.276Z,100415.03
2019-04-26T00:07:58.467Z,100437.94
2019-04-26T00:13:18.645Z,100448.47
2019-04-26T00:18:24.435Z,100467.08
2019-04-26T00:23:30.909Z,100466.34
2019-04-26T00:28:36.794Z,100464.31
2019-04-26T00:33:42.232Z,100463.92
2019-04-26T00:38:47.770Z,100463.02
2019-04-26T00:43:53.229Z,100467.14
2019-04-26T00:48:58.677Z,100471.23
2019-04-26T00:54:04.066Z,100489.48
2019-04-26T00:59:09.873Z,100483.23
2019-04-26T01:04:16.047Z,100503.67
2019-04-26T01:09:23.703Z,100520.64
2019-04-26T01:14:29.246Z,100536.02
2019-04-26T01:19:34.672Z,100528.64
2019-04-26T01:24:40.104Z,100521.98
2019-04-26T01:29:45.532Z,100531.77
2019-04-26T01:34:51.040Z,100536.23
2019-04-26T01:39:59.473Z,100525.37
2019-04-26T01:45:16.551Z,100534.55
2019-04-26T01:50:23.556Z,100563.21
2019-04-26T01:55:29.220Z,100569.16
2019-04-26T02:00:43.689Z,100540.88
2019-04-26T02:05:49.151Z,100497.77
2019-04-26T02:10:54.595Z,100516.00
2019-04-26T02:16:00.062Z,100545.28
2019-04-26T02:21:35.659Z,100551.70
2019-04-26T02:26:43.077Z,100553.95
2019-04-26T02:31:52.834Z,100564.80
2019-04-26T02:37:01.581Z,100561.49
2019-04-26T02:42:20.447Z,100568.37
2019-04-26T02:47:46.593Z,100576.57
2019-04-26T02:53:16.763Z,100577.80
2019-04-26T02:58:22.516Z,100578.03
2019-04-26T03:03:29.828Z,100589.65
2019-04-26T03:08:36.021Z,100591.16
2019-04-26T03:13:49.766Z,100574.79
2019-04-26T03:19:10.916Z,100562.48
2019-04-26T03:24:32.261Z,100577.09
2019-04-26T03:30:23.264Z,100589.99
2019-04-26T03:35:39.847Z,100590.22
2019-04-26T03:40:58.950Z,100598.12
2019-04-26T03:46:35.660Z,100608.42
2019-04-26T03:52:13.278Z,100586.22
2019-04-26T03:57:42.709Z,100598.20
2019-04-26T04:03:22.287Z,100600.86
2019-04-26T04:08:45.988Z,100599.61
2019-04-26T04:14:03.452Z,100601.42
2019-04-26T04:19:56.960Z,100600.05
2019-04-26T04:25:04.611Z,100614.15
2019-04-26T04:30:56.389Z,100609.15
2019-04-26T04:36:09.954Z,100617.94
2019-04-26T04:41:28.530Z,100623.11
2019-04-26T04:47:45.162Z,100615.29
2019-04-26T04:53:02.551Z,100605.36
2019-04-26T04:58:13.150Z,100623.68
2019-04-26T05:03:42.344Z,100634.56
2019-04-26T05:09:00.881Z,100637.23
2019-04-26T05:14:30.675Z,100650.87
2019-04-26T05:20:44.450Z,100660.11
2019-04-26T05:26:40.200Z,100661.26
2019-04-26T05:32:25.010Z,100659.20
2019-04-26T05:38:04.736Z,100662.09
2019-04-26T05:43:41.019Z,100657.86
2019-04-26T05:49:50.363Z,100657.12
2019-04-26T05:55:47.817Z,100669.14
2019-04-26T06:02:30.449Z,100681.52
2019-04-26T06:07:56.350Z,100684.64
2019-04-26T06:14:08.962Z,100676.91
2019-04-26T06:19:24.215Z,100679.08
2019-04-26T06:24:49.249Z,100683.39
2019-04-26T06:30:19.755Z,100719.02
2019-04-26T06:35:26.427Z,100744.63
2019-04-26T06:41:24.763Z,100743.77
2019-04-26T06:47:11.151Z,100749.06
2019-04-26T06:52:19.824Z,100746.53
2019-04-26T06:58:16.780Z,100742.17
2019-04-26T07:04:19.905Z,100749.09
2019-04-26T07:09:27.067Z,100752.45
2019-04-26T07:15:28.716Z,100749.88
2019-04-26T07:20:40.741Z,100750.64
2019-04-26T07:26:45.152Z,100759.83
2019-04-26T07:31:59.128Z,100781.25
2019-04-26T07:38:04.807Z,100785.41
2019-04-26T07:43:24.257Z,100797.90
2019-04-26T07:49:25.872Z,100793.03
2019-04-26T07:55:25.995Z,100785.31
2019-04-26T08:00:44.975Z,100779.38
2019-04-26T08:06:20.220Z,100786.44
2019-04-26T08:11:34.471Z,100800.70
2019-04-26T08:17:01.056Z,100804.55
2019-04-26T08:22:17.873Z,100817.09
2019-04-26T08:27:23.856Z,100808.16
2019-04-26T08:32:33.394Z,100822.06
2019-04-26T08:37:46.720Z,100831.91
2019-04-26T08:43:02.665Z,100831.62
2019-04-26T08:48:23.348Z,100837.45
2019-04-26T08:53:28.094Z,100832.81
2019-04-26T08:58:33.589Z,100830.19
2019-04-26T09:04:02.038Z,100835.48
2019-04-26T09:09:18.229Z,100839.04
2019-04-26T09:14:23.793Z,100841.49
2019-04-26T09:19:30.434Z,100836.75
2019-04-26T09:24:47.160Z,100847.14
2019-04-26T09:30:00.610Z,100831.75
2019-04-26T09:35:06.756Z,100846.41
2019-04-26T09:40:21.086Z,100860.89
2019-04-26T09:45:48.142Z,100854.91
2019-04-26T09:50:54.411Z,100869.16
2019-04-26T09:55:59.889Z,100878.38
2019-04-26T10:01:06.346Z,100872.68
2019-04-26T10:06:12.356Z,100866.20
2019-04-26T10:11:19.968Z,100875.52
2019-04-26T10:16:36.909Z,100869.38
2019-04-26T10:21:40.655Z,100870.66
2019-04-26T10:26:46.161Z,100872.25
2019-04-26T10:31:52.794Z,100873.81
2019-04-26T10:37:01.723Z,100870.05
2019-04-26T10:42:05.706Z,100861.23
2019-04-26T10:47:11.256Z,100846.77
2019-04-26T10:52:26.735Z,100842.45
2019-04-26T10:57:36.778Z,100847.12
2019-04-26T11:02:42.316Z,100854.98
2019-04-26T11:07:47.849Z,100838.94
2019-04-26T11:12:53.254Z,100837.00
2019-04-26T11:17:58.700Z,100820.34
2019-04-26T11:23:08.207Z,100832.64
2019-04-26T11:28:13.100Z,100820.72
2019-04-26T11:33:18.615Z,100836.03
2019-04-26T11:38:26.961Z,100834.34
2019-04-26T11:43:31.429Z,100834.41
2019-04-26T11:48:36.862Z,100834.16
2019-04-26T11:53:44.737Z,100834.39
2019-04-26T11:58:52.558Z,100828.34
2019-04-26T12:04:25.010Z,100816.61
2019-04-26T12:09:42.497Z,100827.47
2019-04-26T12:14:48.202Z,100827.57
2019-04-26T12:19:53.660Z,100826.30
2019-04-26T12:24:59.092Z,100814.19
2019-04-26T12:30:04.670Z,100806.83
2019-04-26T12:35:10.077Z,100814.84
2019-04-26T12:40:15.993Z,100818.65
2019-04-26T12:45:40.415Z,100825.36
2019-04-26T12:50:45.908Z,100827.57
2019-04-26T12:55:53.232Z,100822.22
2019-04-26T13:01:00.144Z,100823.61
2019-04-26T13:06:05.783Z,100825.59
2019-04-26T13:11:30.109Z,100829.30
2019-04-26T13:16:52.782Z,100825.39
2019-04-26T13:21:58.510Z,100819.50
2019-04-26T13:27:06.214Z,100822.00
2019-04-26T13:32:11.670Z,100829.05
2019-04-26T13:37:17.966Z,100821.62
2019-04-26T13:42:23.490Z,100819.83
2019-04-26T13:47:46.823Z,100821.20
2019-04-26T13:52:52.363Z,100818.37
2019-04-26T13:57:57.885Z,100827.28
2019-04-26T14:03:03.295Z,100825.39
2019-04-26T14:08:09.162Z,100826.05
2019-04-26T14:13:14.758Z,100824.81
2019-04-26T14:18:20.237Z,100821.64
2019-04-26T14:23:45.245Z,100826.03
2019-04-26T14:28:49.868Z,100825.51
2019-04-26T14:33:55.301Z,100827.97
2019-04-26T14:39:06.000Z,100824.11
2019-04-26T14:44:15.292Z,100822.98
2019-04-26T14:49:19.234Z,100819.92
2019-04-26T14:54:23.414Z,100809.30
2019-04-26T14:59:47.089Z,100810.05
2019-04-26T15:04:58.089Z,100809.27
2019-04-26T15:10:06.851Z,100809.70
2019-04-26T15:15:11.250Z,100811.81
2019-04-26T15:20:20.761Z,100806.83
2019-04-26T15:25:23.883Z,100792.73
2019-04-26T15:30:29.337Z,100794.01
2019-04-26T15:35:35.893Z,100793.01
2019-04-26T15:41:05.589Z,100796.98
2019-04-26T15:46:27.110Z,100801.08
2019-04-26T15:51:33.734Z,100801.80
2019-04-26T15:56:39.459Z,100806.36
2019-04-26T16:01:47.673Z,100801.70
2019-04-26T16:06:52.308Z,100806.11
2019-04-26T16:11:57.726Z,100808.75
2019-04-26T16:17:06.514Z,100807.52
2019-04-26T16:22:10.474Z,100802.61
2019-04-26T16:27:16.050Z,100803.37
2019-04-26T16:32:34.496Z,100806.98
2019-04-26T16:37:40.144Z,100797.53
2019-04-26T16:42:49.739Z,100812.55
2019-04-26T16:47:53.198Z,100818.08
2019-04-26T16:52:58.739Z,100828.52
2019-04-26T16:58:04.553Z,100838.09
2019-04-26T17:03:10.207Z,100837.94
2019-04-26T17:08:19.112Z,100846.52
2019-04-26T17:13:24.011Z,100845.69
2019-04-26T17:18:30.303Z,100850.31
2019-04-26T17:24:04.836Z,100851.03
2019-04-26T17:29:08.006Z,100865.74
2019-04-26T17:34:13.574Z,100862.36
2019-04-26T17:39:19.092Z,100862.08
2019-04-26T17:44:26.613Z,100857.90
2019-04-26T17:49:34.523Z,100867.27
2019-04-26T17:54:48.902Z,100861.88
2019-04-26T17:59:48.888Z,100862.50
2019-04-26T18:05:00.421Z,100848.36
2019-04-26T18:10:04.365Z,100848.33
2019-04-26T18:15:10.349Z,100853.70
2019-04-26T18:20:27.341Z,100860.81
2019-04-26T18:25:32.758Z,100866.97
2019-04-26T18:30:40.335Z,100874.63
2019-04-26T18:35:49.220Z,100881.03
2019-04-26T18:41:01.226Z,100894.20
2019-04-26T18:46:06.464Z,100895.86
2019-04-26T18:51:11.183Z,100896.88
2019-04-26T18:56:17.730Z,100904.81
2019-04-26T19:01:23.159Z,100916.20
2019-04-26T19:06:31.813Z,100932.37
2019-04-26T19:11:36.168Z,100931.72
2019-04-26T19:16:50.227Z,100937.23
2019-04-26T19:22:01.504Z,100939.28
2019-04-26T19:27:07.134Z,100936.23
2019-04-26T19:32:12.662Z,100943.78
2019-04-26T19:37:18.147Z,100941.84
2019-04-26T19:42:27.105Z,100942.16
2019-04-26T19:47:44.013Z,100945.17
2019-04-26T19:52:59.493Z,100939.91
2019-04-26T19:58:16.680Z,100936.52
2019-04-26T20:03:18.148Z,100950.20
2019-04-26T20:08:23.798Z,100961.58
2019-04-26T20:13:29.284Z,100964.50
2019-04-26T20:18:38.970Z,100957.22
2019-04-26T20:23:43.792Z,100962.59
2019-04-26T20:28:49.349Z,100958.63
2019-04-26T20:33:54.860Z,100960.58
2019-04-26T20:39:01.760Z,100960.71
2019-04-26T20:44:09.938Z,100968.84
2019-04-26T20:49:14.608Z,100973.84
2019-04-26T20:54:20.148Z,100965.66
2019-04-26T20:59:25.665Z,100971.70
2019-04-26T21:04:38.097Z,100976.36
2019-04-26T21:09:40.891Z,100970.70
2019-04-26T21:14:45.867Z,100964.53
2019-04-26T21:19:54.905Z,100961.66
2019-04-26T21:25:04.626Z,100951.48
2019-04-26T21:30:24.845Z,100962.30
2019-04-26T21:35:49.190Z,100968.23
2019-04-26T21:41:04.367Z,100972.56
2019-04-26T21:46:08.427Z,100965.41
2019-04-26T21:51:16.127Z,100968.56
2019-04-26T21:56:23.331Z,100964.09
2019-04-26T22:01:28.984Z,100967.43
2019-04-26T22:06:34.501Z,100973.64
2019-04-26T22:11:40.364Z,100967.23
2019-04-26T22:17:06.331Z,100965.95
2019-04-26T22:22:29.188Z,100960.45
2019-04-26T22:27:34.689Z,100963.02
2019-04-26T22:32:40.285Z,100966.37
2019-04-26T22:37:48.103Z,100963.03
2019-04-26T22:42:57.967Z,100964.59
2019-04-26T22:48:23.880Z,100966.61
2019-04-26T22:53:29.420Z,100962.00
2019-04-26T22:58:35.038Z,100969.70
2019-04-26T23:03:41.149Z,100970.31
2019-04-26T23:08:47.907Z,100969.03
2019-04-26T23:14:11.523Z,100971.34
2019-04-26T23:19:33.506Z,100969.89
2019-04-26T23:24:38.955Z,100960.34
2019-04-26T23:29:45.913Z,100971.95
2019-04-26T23:34:53.136Z,100965.81
2019-04-26T23:39:58.947Z,100966.60
2019-04-26T23:45:04.697Z,100964.08
2019-04-26T23:50:10.206Z,100960.05
2019-04-26T23:55:15.728Z,100960.03
